createdAt,value
2018-03-02T00:01:17.181Z,34.57
2018-03-02T00:03:44.743Z,37.03
2018-03-02T00:06:12.385Z,34.60
2018-03-02T00:08:40.011Z,37.37
2018-03-02T00:11:07.678Z,33.40
2018-03-02T00:13:35.242Z,31.47
2018-03-02T00:16:02.864Z,31.60
2018-03-02T00:18:30.539Z,32.13
2018-03-02T00:20:58.110Z,32.90
2018-03-02T00:23:25.783Z,32.97
2018-03-02T00:25:53.358Z,31.10
2018-03-02T00:28:20.940Z,29.20
2018-03-02T00:30:48.642Z,28.73
2018-03-02T00:33:16.273Z,30.97
2018-03-02T00:35:43.957Z,28.30
2018-03-02T00:38:11.544Z,27.00
2018-03-02T00:40:39.117Z,29.97
2018-03-02T00:43:06.695Z,28.93
2018-03-02T00:45:34.345Z,27.60
2018-03-02T00:48:02.032Z,27.90
2018-03-02T00:50:29.662Z,28.13
2018-03-02T00:52:57.246Z,26.70
2018-03-02T00:55:24.904Z,28.60
2018-03-02T00:57:52.493Z,27.50
2018-03-02T01:00:20.067Z,26.20
2018-03-02T01:02:47.647Z,27.90
2018-03-02T01:05:15.218Z,26.40
2018-03-02T01:07:42.901Z,25.70
2018-03-02T01:10:10.503Z,26.00
2018-03-02T01:12:38.158Z,27.60
2018-03-02T01:15:05.731Z,26.83
2018-03-02T01:17:33.377Z,25.10
2018-03-02T01:20:00.996Z,27.07
2018-03-02T01:22:28.606Z,25.97
2018-03-02T01:24:56.242Z,27.60
2018-03-02T01:27:23.881Z,27.00
2018-03-02T01:29:51.567Z,22.97
2018-03-02T01:32:19.222Z,27.50
2018-03-02T01:34:46.915Z,23.23
2018-03-02T01:37:14.515Z,24.93
2018-03-02T01:39:42.133Z,26.53
2018-03-02T01:42:09.915Z,24.83
2018-03-02T01:44:37.537Z,22.00
2018-03-02T01:47:05.165Z,25.30
2018-03-02T01:49:32.790Z,25.27
2018-03-02T01:52:00.351Z,25.33
2018-03-02T01:54:27.992Z,26.07
2018-03-02T01:56:55.652Z,24.17
2018-03-02T01:59:23.230Z,25.97
2018-03-02T02:01:50.814Z,28.67
2018-03-02T02:04:18.414Z,27.10
2018-03-02T02:06:46.015Z,26.93
2018-03-02T02:09:13.582Z,26.73
2018-03-02T02:11:41.173Z,27.50
2018-03-02T02:14:08.782Z,23.90
2018-03-02T02:16:36.410Z,26.13
2018-03-02T02:19:04.034Z,28.23
2018-03-02T02:21:31.625Z,30.30
2018-03-02T02:23:59.248Z,26.60
2018-03-02T02:26:26.875Z,24.93
2018-03-02T02:28:54.494Z,28.83
2018-03-02T02:31:22.067Z,21.83
2018-03-02T02:33:49.684Z,19.70
2018-03-02T02:36:17.331Z,23.73
2018-03-02T02:38:44.990Z,21.80
2018-03-02T02:41:12.571Z,22.50
2018-03-02T02:43:40.202Z,22.53
2018-03-02T02:46:07.891Z,21.13
2018-03-02T02:48:35.458Z,22.40
2018-03-02T02:51:03.043Z,22.90
2018-03-02T02:53:30.665Z,29.07
2018-03-02T02:55:58.242Z,25.73
2018-03-02T02:58:25.845Z,21.93
2018-03-02T03:00:54.255Z,22.03
2018-03-02T03:03:21.891Z,21.90
2018-03-02T03:05:49.526Z,23.20
2018-03-02T03:08:17.102Z,25.70
2018-03-02T03:10:44.761Z,24.70
2018-03-02T03:13:12.371Z,22.03
2018-03-02T03:15:39.959Z,25.03
2018-03-02T03:18:07.547Z,22.77
2018-03-02T03:20:35.142Z,26.43
2018-03-02T03:23:02.828Z,22.03
2018-03-02T03:25:30.379Z,24.70
2018-03-02T03:27:58.002Z,25.03
2018-03-02T03:30:25.659Z,26.03
2018-03-02T03:32:53.266Z,27.63
2018-03-02T03:35:20.916Z,24.37
2018-03-02T03:37:48.496Z,22.83
2018-03-02T03:40:16.230Z,23.97
2018-03-02T03:42:43.870Z,24.47
2018-03-02T03:45:11.452Z,23.53
2018-03-02T03:47:39.089Z,26.17
2018-03-02T03:50:06.738Z,22.30
2018-03-02T03:52:34.351Z,23.27
2018-03-02T03:55:01.995Z,22.37
2018-03-02T03:57:29.627Z,23.00
2018-03-02T03:59:57.249Z,24.80
2018-03-02T04:02:24.851Z,25.50
2018-03-02T04:04:52.431Z,26.80
2018-03-02T04:07:20.060Z,24.80
2018-03-02T04:09:47.635Z,27.40
2018-03-02T04:12:15.200Z,26.87
2018-03-02T04:14:42.848Z,26.50
2018-03-02T04:17:10.480Z,27.27
2018-03-02T04:19:38.211Z,24.10
2018-03-02T04:22:05.773Z,26.67
2018-03-02T04:24:33.399Z,28.00
2018-03-02T04:27:00.975Z,24.17
2018-03-02T04:29:28.543Z,28.80
2018-03-02T04:31:56.135Z,28.30
2018-03-02T04:34:23.854Z,26.37
2018-03-02T04:36:51.588Z,26.27
2018-03-02T04:39:19.272Z,29.47
2018-03-02T04:41:46.854Z,27.87
2018-03-02T04:44:14.430Z,27.67
2018-03-02T04:46:41.999Z,30.50
2018-03-02T04:49:09.570Z,31.63
2018-03-02T04:51:37.255Z,30.67
2018-03-02T04:54:04.978Z,27.93
2018-03-02T04:56:32.615Z,30.20
2018-03-02T04:59:00.378Z,31.07
2018-03-02T05:01:28.026Z,30.67
2018-03-02T05:03:55.723Z,34.03
2018-03-02T05:06:23.324Z,29.30
2018-03-02T05:08:50.894Z,28.93
2018-03-02T05:11:18.529Z,30.53
2018-03-02T05:13:46.093Z,28.30
2018-03-02T05:16:13.694Z,31.20
2018-03-02T05:18:41.291Z,47.03
2018-03-02T05:21:08.936Z,33.50
2018-03-02T05:23:36.506Z,44.53
2018-03-02T05:26:04.074Z,44.30
2018-03-02T05:28:31.650Z,41.00
2018-03-02T05:30:59.286Z,34.90
2018-03-02T05:33:26.875Z,36.97
2018-03-02T05:35:54.499Z,38.97
2018-03-02T05:38:22.071Z,39.37
2018-03-02T05:40:49.704Z,43.70
2018-03-02T05:43:17.336Z,39.97
2018-03-02T05:45:44.954Z,42.43
2018-03-02T05:48:12.535Z,40.73
2018-03-02T05:50:40.208Z,42.90
2018-03-02T05:53:07.836Z,43.80
2018-03-02T05:55:35.475Z,46.70
2018-03-02T05:58:03.067Z,44.37
2018-03-02T06:00:30.721Z,35.17
2018-03-02T06:02:58.303Z,34.00
2018-03-02T06:05:25.951Z,36.87
2018-03-02T06:07:53.638Z,39.77
2018-03-02T06:10:21.234Z,38.57
2018-03-02T06:12:48.803Z,35.30
2018-03-02T06:15:16.379Z,37.37
2018-03-02T06:17:43.950Z,36.37
2018-03-02T06:20:11.535Z,32.20
2018-03-02T06:22:39.227Z,40.43
2018-03-02T06:25:06.855Z,42.60
2018-03-02T06:27:34.462Z,41.77
2018-03-02T06:30:02.039Z,63.00
2018-03-02T06:32:29.626Z,41.00
2018-03-02T06:34:57.201Z,47.50
2018-03-02T06:37:24.783Z,45.27
2018-03-02T06:39:52.425Z,45.70
2018-03-02T06:42:20.068Z,44.17
2018-03-02T06:44:47.738Z,37.97
2018-03-02T06:47:15.498Z,40.40
2018-03-02T06:49:43.068Z,35.07
2018-03-02T06:52:10.687Z,34.50
2018-03-02T06:54:38.410Z,37.90
2018-03-02T06:57:06.100Z,29.70
2018-03-02T06:59:33.746Z,29.37
2018-03-02T07:02:01.314Z,34.20
2018-03-02T07:04:28.942Z,29.73
2018-03-02T07:06:56.646Z,26.00
2018-03-02T07:09:24.282Z,30.63
2018-03-02T07:11:51.861Z,31.10
2018-03-02T07:14:19.516Z,28.17
2018-03-02T07:16:47.164Z,30.43
2018-03-02T07:19:14.872Z,34.07
2018-03-02T07:21:42.563Z,31.90
2018-03-02T07:24:10.137Z,33.77
2018-03-02T07:29:12.799Z,29.70
2018-03-02T07:31:40.435Z,27.07
2018-03-02T07:34:08.009Z,26.50
2018-03-02T07:36:35.594Z,29.97
2018-03-02T07:39:03.207Z,29.40
2018-03-02T07:41:30.788Z,33.50
2018-03-02T07:43:58.518Z,30.50
2018-03-02T07:46:26.102Z,33.47
2018-03-02T07:48:53.779Z,34.67
2018-03-02T07:51:21.349Z,32.23
2018-03-02T07:53:48.953Z,30.73
2018-03-02T07:56:16.530Z,32.33
2018-03-02T07:58:44.179Z,42.77
2018-03-02T08:01:11.895Z,35.83
2018-03-02T08:03:39.517Z,31.63
2018-03-02T08:06:07.159Z,31.60
2018-03-02T08:08:34.731Z,29.60
2018-03-02T08:11:02.354Z,30.63
2018-03-02T08:13:30.048Z,32.60
2018-03-02T08:15:57.693Z,29.73
2018-03-02T08:18:25.306Z,32.17
2018-03-02T08:20:52.900Z,36.03
2018-03-02T08:23:20.651Z,31.63
2018-03-02T08:25:48.298Z,31.40
2018-03-02T08:28:15.902Z,31.43
2018-03-02T08:30:43.567Z,39.00
2018-03-02T08:33:11.143Z,35.80
2018-03-02T08:35:38.739Z,34.37
2018-03-02T08:38:06.317Z,33.33
2018-03-02T08:40:33.971Z,37.43
2018-03-02T08:43:01.663Z,36.07
2018-03-02T08:45:29.318Z,36.23
2018-03-02T08:47:56.991Z,33.70
2018-03-02T08:50:24.652Z,34.83
2018-03-02T08:52:52.242Z,31.77
2018-03-02T08:55:20.581Z,33.40
2018-03-02T08:57:48.297Z,36.73
2018-03-02T09:00:15.961Z,35.10
2018-03-02T09:02:43.586Z,36.27
2018-03-02T09:05:11.179Z,41.73
2018-03-02T09:07:38.802Z,36.83
2018-03-02T09:10:06.403Z,44.47
2018-03-02T09:12:34.122Z,34.83
2018-03-02T09:15:01.770Z,39.03
2018-03-02T09:17:29.375Z,37.70
2018-03-02T09:19:56.949Z,34.10
2018-03-02T09:22:24.580Z,34.30
2018-03-02T09:24:52.171Z,45.30
2018-03-02T09:27:19.799Z,43.10
2018-03-02T09:29:47.386Z,36.90
2018-03-02T09:32:15.027Z,40.13
2018-03-02T09:34:42.666Z,38.73
2018-03-02T09:37:10.339Z,39.70
2018-03-02T09:39:37.916Z,36.23
2018-03-02T09:42:05.526Z,38.97
2018-03-02T09:44:33.116Z,38.37
2018-03-02T09:47:00.775Z,35.90
2018-03-02T09:49:28.447Z,34.80
2018-03-02T09:51:56.026Z,38.70
2018-03-02T09:54:23.770Z,38.00
2018-03-02T09:56:51.344Z,36.30
2018-03-02T09:59:18.961Z,34.60
2018-03-02T10:01:46.590Z,39.53
2018-03-02T10:04:14.145Z,42.03
2018-03-02T10:06:41.775Z,39.47
2018-03-02T10:09:09.375Z,41.20
2018-03-02T10:11:37.597Z,44.27
2018-03-02T10:14:05.186Z,48.23
2018-03-02T10:16:32.805Z,44.20
2018-03-02T10:19:00.629Z,45.87
2018-03-02T10:21:28.186Z,41.77
2018-03-02T10:23:55.758Z,49.40
2018-03-02T10:26:23.336Z,46.60
2018-03-02T10:28:50.947Z,44.47
2018-03-02T10:31:18.594Z,41.83
2018-03-02T10:33:46.206Z,43.00
2018-03-02T10:36:13.778Z,41.23
2018-03-02T10:38:41.408Z,45.80
2018-03-02T10:41:08.979Z,43.40
2018-03-02T10:43:36.607Z,43.57
2018-03-02T10:46:04.174Z,41.20
2018-03-02T10:48:31.791Z,46.83
2018-03-02T10:50:59.474Z,48.13
2018-03-02T10:53:27.070Z,44.80
2018-03-02T10:55:54.633Z,48.83
2018-03-02T10:58:22.277Z,48.20
2018-03-02T11:00:51.807Z,36.40
2018-03-02T11:03:23.256Z,38.07
2018-03-02T11:05:50.852Z,39.77
2018-03-02T11:08:18.493Z,39.40
2018-03-02T11:10:46.093Z,36.03
2018-03-02T11:13:13.708Z,42.03
2018-03-02T11:15:41.314Z,39.00
2018-03-02T11:18:08.915Z,38.30
2018-03-02T11:20:36.486Z,34.00
2018-03-02T11:23:04.109Z,34.13
2018-03-02T11:25:31.766Z,33.80
2018-03-02T11:27:59.354Z,31.40
2018-03-02T11:30:26.977Z,36.53
2018-03-02T11:32:54.638Z,31.57
2018-03-02T11:35:22.206Z,36.17
2018-03-02T11:37:49.818Z,32.67
2018-03-02T11:40:17.470Z,35.10
2018-03-02T11:42:45.099Z,31.37
2018-03-02T11:45:12.722Z,34.33
2018-03-02T11:47:40.757Z,30.17
2018-03-02T11:50:08.322Z,36.40
2018-03-02T11:52:35.903Z,33.80
2018-03-02T11:55:03.478Z,40.67
2018-03-02T11:57:31.072Z,40.60
2018-03-02T11:59:58.688Z,43.10
2018-03-02T12:02:26.593Z,36.87
2018-03-02T12:04:54.186Z,36.80
2018-03-02T12:07:21.760Z,33.33
2018-03-02T12:09:49.337Z,34.43
2018-03-02T12:12:16.983Z,31.97
2018-03-02T12:14:44.662Z,33.93
2018-03-02T12:17:12.304Z,36.03
2018-03-02T12:19:39.873Z,33.27
2018-03-02T12:22:07.688Z,36.60
2018-03-02T12:24:35.274Z,37.60
2018-03-02T12:27:02.974Z,33.67
2018-03-02T12:29:30.580Z,37.73
2018-03-02T12:31:58.219Z,34.97
2018-03-02T12:34:25.848Z,39.33
2018-03-02T12:36:53.484Z,36.80
2018-03-02T12:39:21.055Z,34.27
2018-03-02T12:41:48.678Z,33.37
2018-03-02T12:44:16.376Z,36.37
2018-03-02T12:46:43.943Z,36.33
2018-03-02T12:49:11.564Z,39.87
2018-03-02T12:51:39.183Z,33.17
2018-03-02T12:54:06.746Z,33.83
2018-03-02T12:56:35.193Z,32.43
2018-03-02T12:59:02.817Z,36.73
2018-03-02T13:01:30.547Z,34.07
2018-03-02T13:03:58.214Z,38.50
2018-03-02T13:06:25.840Z,31.83
2018-03-02T13:08:53.426Z,36.07
2018-03-02T13:11:21.005Z,38.10
2018-03-02T13:13:48.679Z,34.20
2018-03-02T13:16:16.348Z,39.27
2018-03-02T13:18:43.922Z,42.90
2018-03-02T13:21:11.489Z,40.63
2018-03-02T13:23:39.110Z,37.23
2018-03-02T13:26:06.728Z,39.50
2018-03-02T13:28:46.063Z,37.27
2018-03-02T13:31:13.682Z,36.23
2018-03-02T13:33:53.277Z,36.83
2018-03-02T13:36:20.959Z,36.03
2018-03-02T13:38:48.548Z,35.83
2018-03-02T13:41:27.922Z,46.67
2018-03-02T13:43:55.486Z,35.10
2018-03-02T13:46:23.119Z,36.50
2018-03-02T13:49:02.487Z,39.00
2018-03-02T13:51:30.179Z,36.10
2018-03-02T13:53:57.842Z,41.40
2018-03-02T13:56:37.134Z,37.90
2018-03-02T13:59:04.751Z,42.90
2018-03-02T14:01:32.315Z,43.17
2018-03-02T14:04:11.771Z,41.60
2018-03-02T14:06:39.350Z,43.50
2018-03-02T14:09:06.938Z,42.07
2018-03-02T14:11:34.549Z,47.83
2018-03-02T14:14:02.201Z,46.90
2018-03-02T14:16:29.797Z,47.87
2018-03-02T14:18:57.430Z,45.10
2018-03-02T14:21:25.026Z,50.23
2018-03-02T14:23:52.651Z,52.23
2018-03-02T14:26:20.327Z,49.13
2018-03-02T14:28:47.983Z,61.27
2018-03-02T14:31:15.567Z,63.80
2018-03-02T14:33:43.211Z,58.23
2018-03-02T14:36:10.830Z,60.73
2018-03-02T14:38:38.412Z,51.00
2018-03-02T14:41:06.019Z,53.17
2018-03-02T14:43:33.706Z,46.30
2018-03-02T14:46:01.306Z,56.67
2018-03-02T14:48:28.946Z,54.63
2018-03-02T14:50:56.595Z,48.67
2018-03-02T14:53:24.166Z,53.40
2018-03-02T14:55:52.494Z,49.00
2018-03-02T14:58:20.214Z,55.47
2018-03-02T15:00:47.824Z,55.73
2018-03-02T15:03:15.438Z,55.40
2018-03-02T15:05:43.154Z,51.80
2018-03-02T15:08:10.714Z,48.13
2018-03-02T15:10:38.356Z,52.33
2018-03-02T15:13:05.931Z,69.90
2018-03-02T15:15:33.524Z,60.03
2018-03-02T15:18:01.200Z,48.60
2018-03-02T15:20:28.899Z,53.30
2018-03-02T15:22:56.695Z,45.90
2018-03-02T15:25:24.342Z,49.80
2018-03-02T15:27:51.974Z,53.00
2018-03-02T15:30:19.555Z,48.37
2018-03-02T15:32:47.121Z,44.80
2018-03-02T15:35:14.788Z,47.07
2018-03-02T15:37:42.438Z,55.67
2018-03-02T15:40:10.243Z,54.07
2018-03-02T15:42:37.891Z,55.87
2018-03-02T15:45:05.458Z,54.17
2018-03-02T15:47:33.030Z,53.13
2018-03-02T15:50:00.591Z,58.30
2018-03-02T15:52:28.171Z,54.30
2018-03-02T15:54:55.747Z,50.87
2018-03-02T15:57:23.322Z,55.10
2018-03-02T15:59:50.932Z,49.27
2018-03-02T16:02:18.605Z,45.40
2018-03-02T16:04:46.168Z,42.90
2018-03-02T16:07:13.749Z,47.40
2018-03-02T16:09:41.442Z,52.10
2018-03-02T16:12:09.018Z,78.07
2018-03-02T16:14:36.658Z,53.00
2018-03-02T16:17:04.267Z,52.23
2018-03-02T16:19:32.040Z,50.73
2018-03-02T16:21:59.681Z,52.43
2018-03-02T16:24:27.262Z,46.73
2018-03-02T16:26:54.840Z,53.63
2018-03-02T16:29:22.433Z,55.97
2018-03-02T16:31:50.076Z,62.73
2018-03-02T16:34:17.745Z,63.03
2018-03-02T16:36:45.381Z,57.57
2018-03-02T16:39:13.025Z,51.17
2018-03-02T16:41:40.594Z,63.70
2018-03-02T16:44:08.170Z,67.37
2018-03-02T16:46:35.741Z,63.60
2018-03-02T16:49:03.392Z,65.30
2018-03-02T16:51:30.966Z,56.30
2018-03-02T16:53:58.537Z,48.97
2018-03-02T16:56:26.245Z,48.87
2018-03-02T16:58:53.850Z,53.03
2018-03-02T17:01:21.499Z,51.53
2018-03-02T17:03:49.071Z,56.30
2018-03-02T17:06:16.741Z,67.90
2018-03-02T17:08:44.377Z,72.77
2018-03-02T17:11:11.975Z,73.70
2018-03-02T17:13:39.601Z,72.30
2018-03-02T17:16:07.236Z,77.80
2018-03-02T17:18:34.827Z,61.70
2018-03-02T17:21:02.400Z,60.60
2018-03-02T17:23:30.104Z,62.53
2018-03-02T17:25:57.668Z,67.13
2018-03-02T17:28:25.391Z,60.50
2018-03-02T17:30:52.966Z,64.93
2018-03-02T17:33:20.699Z,68.80
2018-03-02T17:35:48.281Z,72.57
2018-03-02T17:38:15.912Z,59.37
2018-03-02T17:40:43.490Z,69.83
2018-03-02T17:43:11.113Z,70.60
2018-03-02T17:45:38.887Z,74.73
2018-03-02T17:48:06.456Z,66.33
2018-03-02T17:50:34.035Z,71.70
2018-03-02T17:53:01.723Z,80.33
2018-03-02T17:55:29.400Z,75.63
2018-03-02T17:57:56.992Z,95.87
2018-03-02T18:00:24.576Z,65.77
2018-03-02T18:02:52.177Z,67.20
2018-03-02T18:05:19.852Z,77.17
2018-03-02T18:07:47.428Z,63.13
2018-03-02T18:10:15.008Z,70.10
2018-03-02T18:12:42.737Z,72.60
2018-03-02T18:15:10.418Z,62.60
2018-03-02T18:17:37.990Z,60.87
2018-03-02T18:20:05.570Z,62.07
2018-03-02T18:22:33.535Z,60.27
2018-03-02T18:25:01.122Z,73.97
2018-03-02T18:27:28.783Z,59.20
2018-03-02T18:29:56.494Z,60.27
2018-03-02T18:32:24.140Z,66.10
2018-03-02T18:34:51.810Z,57.47
2018-03-02T18:37:19.386Z,61.90
2018-03-02T18:39:46.956Z,62.53
2018-03-02T18:42:14.668Z,65.83
2018-03-02T18:44:42.300Z,74.97
2018-03-02T18:47:09.957Z,82.77
2018-03-02T18:49:37.554Z,69.07
2018-03-02T18:52:05.202Z,71.80
2018-03-02T18:54:32.828Z,75.77
2018-03-02T18:57:00.489Z,75.20
2018-03-02T18:59:28.232Z,82.17
2018-03-02T19:01:55.803Z,67.50
2018-03-02T19:04:23.380Z,65.30
2018-03-02T19:06:51.018Z,70.17
2018-03-02T19:09:18.662Z,65.60
2018-03-02T19:11:46.306Z,62.00
2018-03-02T19:14:13.932Z,61.67
2018-03-02T19:16:41.560Z,63.97
2018-03-02T19:19:09.219Z,66.47
2018-03-02T19:21:36.869Z,69.20
2018-03-02T19:24:04.449Z,58.67
2018-03-02T19:26:32.133Z,62.43
2018-03-02T19:28:59.684Z,77.03
2018-03-02T19:31:27.325Z,73.33
2018-03-02T19:33:54.910Z,70.13
2018-03-02T19:36:22.624Z,75.70
2018-03-02T19:38:50.259Z,59.87
2018-03-02T19:41:17.901Z,56.60
2018-03-02T19:43:45.603Z,53.90
2018-03-02T19:46:13.231Z,53.87
2018-03-02T19:48:40.902Z,56.33
2018-03-02T19:51:08.480Z,58.97
2018-03-02T19:53:36.046Z,69.30
2018-03-02T19:56:03.682Z,78.50
2018-03-02T19:58:31.276Z,87.43
2018-03-02T20:00:58.913Z,81.90
2018-03-02T20:03:26.549Z,85.50
2018-03-02T20:05:54.223Z,81.50
2018-03-02T20:08:21.857Z,79.90
2018-03-02T20:10:49.527Z,71.27
2018-03-02T20:13:17.104Z,73.17
2018-03-02T20:15:44.743Z,70.17
2018-03-02T20:18:12.419Z,82.23
2018-03-02T20:20:40.085Z,71.50
2018-03-02T20:23:07.797Z,64.10
2018-03-02T20:25:35.434Z,64.07
2018-03-02T20:28:03.085Z,77.37
2018-03-02T20:30:30.806Z,78.83
2018-03-02T20:32:58.486Z,71.97
2018-03-02T20:35:26.086Z,78.47
2018-03-02T20:37:53.748Z,72.77
2018-03-02T20:40:21.421Z,82.67
2018-03-02T20:42:48.988Z,90.57
2018-03-02T20:45:16.590Z,76.30
2018-03-02T20:47:44.168Z,78.40
2018-03-02T20:50:11.734Z,85.80
2018-03-02T20:52:39.395Z,79.90
2018-03-02T20:55:07.044Z,104.93
2018-03-02T20:57:34.676Z,79.70
2018-03-02T21:00:02.254Z,86.50
2018-03-02T21:02:30.015Z,80.70
2018-03-02T21:04:57.624Z,84.43
2018-03-02T21:07:25.188Z,79.87
2018-03-02T21:09:52.815Z,80.40
2018-03-02T21:12:20.430Z,74.70
2018-03-02T21:14:48.069Z,81.87
2018-03-02T21:17:15.639Z,71.10
2018-03-02T21:19:43.278Z,74.70
2018-03-02T21:22:10.981Z,74.50
2018-03-02T21:24:38.607Z,69.97
2018-03-02T21:27:06.234Z,71.97
2018-03-02T21:29:33.946Z,71.40
2018-03-02T21:32:01.619Z,66.53
2018-03-02T21:34:29.205Z,67.27
2018-03-02T21:36:56.830Z,70.80
2018-03-02T21:39:24.414Z,68.83
2018-03-02T21:41:52.028Z,67.73
2018-03-02T21:44:19.603Z,68.33
2018-03-02T21:46:47.287Z,74.07
2018-03-02T21:49:14.894Z,71.43
2018-03-02T21:51:42.654Z,72.30
2018-03-02T21:54:10.303Z,73.13
2018-03-02T21:56:37.930Z,75.10
2018-03-02T21:59:05.582Z,75.77
2018-03-02T22:01:33.243Z,69.37
2018-03-02T22:04:00.824Z,60.87
2018-03-02T22:06:28.461Z,60.97
2018-03-02T22:08:56.028Z,54.27
2018-03-02T22:11:23.606Z,55.90
2018-03-02T22:13:51.183Z,57.50
2018-03-02T22:16:18.864Z,60.67
2018-03-02T22:18:46.440Z,58.37
2018-03-02T22:21:14.079Z,58.60
2018-03-02T22:23:41.655Z,60.87
2018-03-02T22:26:09.234Z,62.43
2018-03-02T22:28:36.817Z,59.73
2018-03-02T22:31:04.426Z,69.10
2018-03-02T22:33:32.137Z,65.70
2018-03-02T22:35:59.723Z,68.73
2018-03-02T22:38:27.355Z,59.37
2018-03-02T22:40:55.032Z,67.40
2018-03-02T22:43:22.597Z,52.70
2018-03-02T22:45:50.196Z,51.90
2018-03-02T22:48:17.824Z,46.77
2018-03-02T22:50:45.464Z,46.53
2018-03-02T22:53:13.054Z,42.37
2018-03-02T22:55:40.731Z,42.37
2018-03-02T22:58:08.439Z,43.30
2018-03-02T23:00:36.099Z,41.83
2018-03-02T23:03:03.719Z,45.80
2018-03-02T23:05:31.291Z,43.47
2018-03-02T23:07:59.110Z,42.77
2018-03-02T23:10:26.683Z,42.57
2018-03-02T23:12:54.414Z,44.57
2018-03-02T23:15:22.018Z,45.20
2018-03-02T23:17:50.394Z,42.60
2018-03-02T23:20:17.983Z,43.77
2018-03-02T23:22:45.871Z,44.97
2018-03-02T23:25:13.559Z,44.83
2018-03-02T23:27:41.132Z,44.07
2018-03-02T23:30:08.824Z,43.07
2018-03-02T23:32:36.474Z,40.60
2018-03-02T23:35:04.191Z,43.50
2018-03-02T23:37:31.798Z,42.47
2018-03-02T23:39:59.522Z,46.10
2018-03-02T23:42:27.122Z,44.07
2018-03-02T23:44:54.701Z,44.60
2018-03-02T23:47:22.407Z,44.63
2018-03-02T23:49:50.064Z,46.63
2018-03-02T23:52:17.698Z,46.47
2018-03-02T23:54:45.310Z,47.07
2018-03-02T23:57:12.871Z,46.03
2018-03-02T23:59:40.602Z,48.37
